sensor_id;sensor_type;location;lat;lon;timestamp;pressure;altitude;pressure_sealevel;temperature;humidity
32131;BME280;18639;50.716;7.086;2022-09-29T00:01:27;98825.28;;;9.06;100.00
32131;BME280;18639;50.716;7.086;2022-09-29T00:03:53;98823.91;;;9.02;100.00
32131;BME280;18639;50.716;7.086;2022-09-29T00:06:18;98813.50;;;8.92;100.00
32131;BME280;18639;50.716;7.086;2022-09-29T00:08:44;98824.72;;;9.02;100.00
32131;BME280;18639;50.716;7.086;2022-09-29T00:11:15;98824.41;;;8.96;100.00
32131;BME280;18639;50.716;7.086;2022-09-29T00:13:42;98754.94;;;8.43;100.00
32131;BME280;18639;50.716;7.086;2022-09-29T00:16:08;98752.47;;;8.41;100.00
32131;BME280;18639;50.716;7.086;2022-09-29T00:18:34;98817.25;;;8.78;100.00
32131;BME280;18639;50.716;7.086;2022-09-29T00:23:27;98818.56;;;8.73;100.00
32131;BME280;18639;50.716;7.086;2022-09-29T00:26:10;98816.63;;;8.65;100.00
32131;BME280;18639;50.716;7.086;2022-09-29T00:28:38;98819.31;;;8.64;100.00
32131;BME280;18639;50.716;7.086;2022-09-29T00:31:06;98808.41;;;8.60;100.00
32131;BME280;18639;50.716;7.086;2022-09-29T00:33:34;98792.34;;;8.47;100.00
32131;BME280;18639;50.716;7.086;2022-09-29T00:36:10;98810.56;;;8.55;100.00
32131;BME280;18639;50.716;7.086;2022-09-29T00:38:37;98807.78;;;8.47;100.00
32131;BME280;18639;50.716;7.086;2022-09-29T00:41:04;98810.75;;;8.42;100.00
32131;BME280;18639;50.716;7.086;2022-09-29T00:46:16;98811.94;;;8.38;100.00
32131;BME280;18639;50.716;7.086;2022-09-29T00:48:43;98808.88;;;8.33;100.00
32131;BME280;18639;50.716;7.086;2022-09-29T00:51:09;98784.19;;;7.99;100.00
32131;BME280;18639;50.716;7.086;2022-09-29T00:53:35;98787.72;;;7.87;100.00
32131;BME280;18639;50.716;7.086;2022-09-29T00:56:10;98740.91;;;7.61;100.00
32131;BME280;18639;50.716;7.086;2022-09-29T00:58:58;98725.28;;;7.53;100.00
32131;BME280;18639;50.716;7.086;2022-09-29T01:01:29;98795.06;;;7.91;100.00
32131;BME280;18639;50.716;7.086;2022-09-29T01:04:11;98770.81;;;7.73;100.00
32131;BME280;18639;50.716;7.086;2022-09-29T01:06:54;98737.91;;;7.45;100.00
32131;BME280;18639;50.716;7.086;2022-09-29T01:09:30;98829.41;;;8.01;100.00
32131;BME280;18639;50.716;7.086;2022-09-29T01:11:57;98825.81;;;7.93;100.00
32131;BME280;18639;50.716;7.086;2022-09-29T01:14:24;98806.56;;;7.76;100.00
32131;BME280;18639;50.716;7.086;2022-09-29T01:16:50;98798.63;;;7.68;100.00
32131;BME280;18639;50.716;7.086;2022-09-29T01:19:20;98831.06;;;7.91;100.00
32131;BME280;18639;50.716;7.086;2022-09-29T01:24:57;98827.81;;;7.89;100.00
32131;BME280;18639;50.716;7.086;2022-09-29T01:35:31;98830.41;;;7.78;100.00
32131;BME280;18639;50.716;7.086;2022-09-29T01:40:48;98820.59;;;7.61;100.00
32131;BME280;18639;50.716;7.086;2022-09-29T01:43:32;98834.63;;;7.68;100.00
32131;BME280;18639;50.716;7.086;2022-09-29T01:46:02;98839.06;;;7.66;100.00
32131;BME280;18639;50.716;7.086;2022-09-29T01:48:32;98838.69;;;7.59;100.00
32131;BME280;18639;50.716;7.086;2022-09-29T01:51:04;98829.59;;;7.55;100.00
32131;BME280;18639;50.716;7.086;2022-09-29T01:53:37;98817.56;;;7.45;100.00
32131;BME280;18639;50.716;7.086;2022-09-29T01:56:15;98843.28;;;7.56;100.00
32131;BME280;18639;50.716;7.086;2022-09-29T02:01:20;98837.78;;;7.49;100.00
32131;BME280;18639;50.716;7.086;2022-09-29T02:04:01;98838.13;;;7.45;100.00
32131;BME280;18639;50.716;7.086;2022-09-29T02:06:41;98849.22;;;7.45;100.00
32131;BME280;18639;50.716;7.086;2022-09-29T02:09:14;98834.16;;;7.41;100.00
32131;BME280;18639;50.716;7.086;2022-09-29T02:11:41;98820.84;;;7.25;100.00
32131;BME280;18639;50.716;7.086;2022-09-29T02:16:40;98834.16;;;7.30;100.00
32131;BME280;18639;50.716;7.086;2022-09-29T02:19:14;98824.34;;;7.24;100.00
32131;BME280;18639;50.716;7.086;2022-09-29T02:21:41;98851.53;;;7.37;100.00
32131;BME280;18639;50.716;7.086;2022-09-29T02:24:07;98834.16;;;7.30;100.00
32131;BME280;18639;50.716;7.086;2022-09-29T02:26:33;98842.44;;;7.33;100.00
32131;BME280;18639;50.716;7.086;2022-09-29T02:29:01;98840.94;;;7.31;100.00
32131;BME280;18639;50.716;7.086;2022-09-29T02:31:27;98825.72;;;7.16;100.00
32131;BME280;18639;50.716;7.086;2022-09-29T02:33:52;98827.25;;;7.19;100.00
32131;BME280;18639;50.716;7.086;2022-09-29T02:38:55;98832.03;;;7.24;100.00
32131;BME280;18639;50.716;7.086;2022-09-29T02:41:47;98827.25;;;7.19;100.00
32131;BME280;18639;50.716;7.086;2022-09-29T02:46:58;98814.25;;;6.98;100.00
32131;BME280;18639;50.716;7.086;2022-09-29T02:57:52;98837.75;;;7.16;100.00
32131;BME280;18639;50.716;7.086;2022-09-29T03:00:21;98838.44;;;7.07;100.00
32131;BME280;18639;50.716;7.086;2022-09-29T03:02:47;98826.19;;;6.99;100.00
32131;BME280;18639;50.716;7.086;2022-09-29T03:05:16;98846.03;;;7.08;100.00
32131;BME280;18639;50.716;7.086;2022-09-29T03:07:42;98845.31;;;7.06;100.00
32131;BME280;18639;50.716;7.086;2022-09-29T03:10:08;98844.50;;;7.06;100.00
32131;BME280;18639;50.716;7.086;2022-09-29T03:12:34;98844.63;;;7.04;100.00
32131;BME280;18639;50.716;7.086;2022-09-29T03:15:00;98846.47;;;7.02;100.00
32131;BME280;18639;50.716;7.086;2022-09-29T03:17:26;98836.22;;;7.02;100.00
32131;BME280;18639;50.716;7.086;2022-09-29T03:19:52;98847.41;;;7.01;100.00
32131;BME280;18639;50.716;7.086;2022-09-29T03:22:17;98829.06;;;6.84;100.00
32131;BME280;18639;50.716;7.086;2022-09-29T03:24:43;98822.38;;;6.81;100.00
32131;BME280;18639;50.716;7.086;2022-09-29T03:27:09;98842.47;;;6.87;100.00
32131;BME280;18639;50.716;7.086;2022-09-29T03:29:34;98848.81;;;6.94;100.00
32131;BME280;18639;50.716;7.086;2022-09-29T03:32:00;98833.63;;;6.91;100.00
32131;BME280;18639;50.716;7.086;2022-09-29T03:34:26;98848.56;;;6.97;100.00
32131;BME280;18639;50.716;7.086;2022-09-29T03:36:51;98835.13;;;6.83;100.00
32131;BME280;18639;50.716;7.086;2022-09-29T03:39:17;98841.56;;;6.88;100.00
32131;BME280;18639;50.716;7.086;2022-09-29T03:41:42;98806.97;;;6.70;100.00
32131;BME280;18639;50.716;7.086;2022-09-29T03:44:08;98822.63;;;6.78;100.00
32131;BME280;18639;50.716;7.086;2022-09-29T03:46:33;98821.06;;;6.64;100.00
32131;BME280;18639;50.716;7.086;2022-09-29T03:48:58;98845.25;;;6.84;100.00
32131;BME280;18639;50.716;7.086;2022-09-29T03:51:24;98847.25;;;6.81;100.00
32131;BME280;18639;50.716;7.086;2022-09-29T03:53:49;98806.22;;;6.57;100.00
32131;BME280;18639;50.716;7.086;2022-09-29T03:56:14;98861.81;;;6.80;100.00
32131;BME280;18639;50.716;7.086;2022-09-29T03:58:40;98841.09;;;6.59;100.00
32131;BME280;18639;50.716;7.086;2022-09-29T04:01:05;98810.72;;;6.42;100.00
32131;BME280;18639;50.716;7.086;2022-09-29T04:03:31;98835.72;;;6.51;100.00
32131;BME280;18639;50.716;7.086;2022-09-29T04:05:57;98869.38;;;6.70;100.00
32131;BME280;18639;50.716;7.086;2022-09-29T04:08:22;98855.78;;;6.57;100.00
32131;BME280;18639;50.716;7.086;2022-09-29T04:10:49;98853.69;;;6.51;100.00
32131;BME280;18639;50.716;7.086;2022-09-29T04:13:15;98863.53;;;6.68;100.00
32131;BME280;18639;50.716;7.086;2022-09-29T04:15:41;98856.84;;;6.55;100.00
32131;BME280;18639;50.716;7.086;2022-09-29T04:18:06;98871.13;;;6.70;100.00
32131;BME280;18639;50.716;7.086;2022-09-29T04:20:32;98869.38;;;6.70;100.00
32131;BME280;18639;50.716;7.086;2022-09-29T04:22:58;98849.84;;;6.57;100.00
32131;BME280;18639;50.716;7.086;2022-09-29T04:25:24;98867.63;;;6.71;100.00
32131;BME280;18639;50.716;7.086;2022-09-29T04:27:50;98878.94;;;6.68;100.00
32131;BME280;18639;50.716;7.086;2022-09-29T04:30:15;98834.03;;;6.39;100.00
32131;BME280;18639;50.716;7.086;2022-09-29T04:32:41;98869.78;;;6.53;100.00
32131;BME280;18639;50.716;7.086;2022-09-29T04:35:07;98860.16;;;6.44;100.00
32131;BME280;18639;50.716;7.086;2022-09-29T04:37:33;98893.03;;;6.63;100.00
32131;BME280;18639;50.716;7.086;2022-09-29T04:40:03;98890.25;;;6.66;100.00
32131;BME280;18639;50.716;7.086;2022-09-29T04:42:29;98886.97;;;6.64;100.00
32131;BME280;18639;50.716;7.086;2022-09-29T04:44:55;98866.63;;;6.50;100.00
32131;BME280;18639;50.716;7.086;2022-09-29T04:47:20;98888.13;;;6.60;100.00
32131;BME280;18639;50.716;7.086;2022-09-29T04:49:45;98873.75;;;6.57;100.00
32131;BME280;18639;50.716;7.086;2022-09-29T04:52:11;98850.94;;;6.42;100.00
32131;BME280;18639;50.716;7.086;2022-09-29T04:54:37;98876.78;;;6.51;100.00
32131;BME280;18639;50.716;7.086;2022-09-29T04:57:03;98899.09;;;6.62;100.00
32131;BME280;18639;50.716;7.086;2022-09-29T04:59:28;98885.06;;;6.55;100.00
32131;BME280;18639;50.716;7.086;2022-09-29T05:01:53;98889.38;;;6.54;100.00
32131;BME280;18639;50.716;7.086;2022-09-29T05:04:19;98884.13;;;6.56;100.00
32131;BME280;18639;50.716;7.086;2022-09-29T05:06:44;98868.69;;;6.45;100.00
32131;BME280;18639;50.716;7.086;2022-09-29T05:09:10;98875.56;;;6.44;100.00
32131;BME280;18639;50.716;7.086;2022-09-29T05:11:35;98902.19;;;6.54;100.00
32131;BME280;18639;50.716;7.086;2022-09-29T05:14:00;98882.53;;;6.42;100.00
32131;BME280;18639;50.716;7.086;2022-09-29T05:16:26;98904.88;;;6.53;100.00
32131;BME280;18639;50.716;7.086;2022-09-29T05:18:51;98902.44;;;6.51;100.00
32131;BME280;18639;50.716;7.086;2022-09-29T05:21:17;98909.09;;;6.54;100.00
32131;BME280;18639;50.716;7.086;2022-09-29T05:23:43;98888.72;;;6.40;100.00
32131;BME280;18639;50.716;7.086;2022-09-29T05:26:10;98897.34;;;6.39;100.00
32131;BME280;18639;50.716;7.086;2022-09-29T05:28:37;98881.84;;;6.40;100.00
32131;BME280;18639;50.716;7.086;2022-09-29T05:31:05;98913.38;;;6.53;100.00
32131;BME280;18639;50.716;7.086;2022-09-29T05:33:32;98921.00;;;6.55;100.00
32131;BME280;18639;50.716;7.086;2022-09-29T05:35:57;98903.22;;;6.52;100.00
32131;BME280;18639;50.716;7.086;2022-09-29T05:38:23;98869.41;;;6.23;100.00
32131;BME280;18639;50.716;7.086;2022-09-29T05:40:50;98911.75;;;6.52;100.00
32131;BME280;18639;50.716;7.086;2022-09-29T05:43:15;98924.28;;;6.57;100.00
32131;BME280;18639;50.716;7.086;2022-09-29T05:45:40;98903.69;;;6.46;100.00
32131;BME280;18639;50.716;7.086;2022-09-29T05:48:06;98912.06;;;6.48;100.00
32131;BME280;18639;50.716;7.086;2022-09-29T05:50:32;98916.28;;;6.49;100.00
32131;BME280;18639;50.716;7.086;2022-09-29T05:53:05;98909.03;;;6.43;100.00
32131;BME280;18639;50.716;7.086;2022-09-29T05:55:30;98912.31;;;6.45;100.00
32131;BME280;18639;50.716;7.086;2022-09-29T05:57:56;98903.31;;;6.26;100.00
32131;BME280;18639;50.716;7.086;2022-09-29T06:00:21;98933.28;;;6.62;100.00
32131;BME280;18639;50.716;7.086;2022-09-29T06:02:46;98928.25;;;6.61;100.00
32131;BME280;18639;50.716;7.086;2022-09-29T06:05:12;98930.59;;;6.64;100.00
32131;BME280;18639;50.716;7.086;2022-09-29T06:07:37;98920.66;;;6.59;100.00
32131;BME280;18639;50.716;7.086;2022-09-29T06:10:02;98925.19;;;6.56;100.00
32131;BME280;18639;50.716;7.086;2022-09-29T06:12:32;98932.72;;;6.70;100.00
32131;BME280;18639;50.716;7.086;2022-09-29T06:14:58;98932.53;;;6.73;100.00
32131;BME280;18639;50.716;7.086;2022-09-29T06:17:23;98931.38;;;6.77;100.00
32131;BME280;18639;50.716;7.086;2022-09-29T06:19:48;98928.81;;;6.77;100.00
32131;BME280;18639;50.716;7.086;2022-09-29T06:22:14;98923.66;;;6.77;100.00
32131;BME280;18639;50.716;7.086;2022-09-29T06:24:39;98926.72;;;6.82;100.00
32131;BME280;18639;50.716;7.086;2022-09-29T06:27:04;98931.41;;;6.88;100.00
32131;BME280;18639;50.716;7.086;2022-09-29T06:29:30;98922.41;;;6.83;100.00
32131;BME280;18639;50.716;7.086;2022-09-29T06:31:55;98927.09;;;6.89;100.00
32131;BME280;18639;50.716;7.086;2022-09-29T06:34:20;98928.03;;;6.88;100.00
32131;BME280;18639;50.716;7.086;2022-09-29T06:36:45;98937.03;;;6.93;100.00
32131;BME280;18639;50.716;7.086;2022-09-29T06:39:31;98946.91;;;7.10;100.00
32131;BME280;18639;50.716;7.086;2022-09-29T06:41:57;98945.03;;;7.12;100.00
32131;BME280;18639;50.716;7.086;2022-09-29T06:44:24;98948.22;;;7.27;100.00
32131;BME280;18639;50.716;7.086;2022-09-29T06:46:51;98937.38;;;7.24;100.00
32131;BME280;18639;50.716;7.086;2022-09-29T06:49:17;98951.88;;;7.36;100.00
32131;BME280;18639;50.716;7.086;2022-09-29T06:51:43;98954.47;;;7.47;100.00
32131;BME280;18639;50.716;7.086;2022-09-29T06:54:10;98958.34;;;7.52;100.00
32131;BME280;18639;50.716;7.086;2022-09-29T06:56:36;98951.22;;;7.56;100.00
32131;BME280;18639;50.716;7.086;2022-09-29T06:59:02;98953.72;;;7.69;100.00
32131;BME280;18639;50.716;7.086;2022-09-29T07:01:27;98945.03;;;7.70;100.00
32131;BME280;18639;50.716;7.086;2022-09-29T07:03:52;98946.94;;;7.79;100.00
32131;BME280;18639;50.716;7.086;2022-09-29T07:06:18;98944.69;;;7.85;100.00
32131;BME280;18639;50.716;7.086;2022-09-29T07:08:43;98942.25;;;7.84;100.00
32131;BME280;18639;50.716;7.086;2022-09-29T07:11:09;98972.53;;;8.02;100.00
32131;BME280;18639;50.716;7.086;2022-09-29T07:13:35;98968.00;;;8.06;100.00
32131;BME280;18639;50.716;7.086;2022-09-29T07:16:07;98968.31;;;8.13;100.00
32131;BME280;18639;50.716;7.086;2022-09-29T07:18:38;98971.59;;;8.15;100.00
32131;BME280;18639;50.716;7.086;2022-09-29T07:21:05;98973.34;;;8.25;100.00
32131;BME280;18639;50.716;7.086;2022-09-29T07:23:31;98940.72;;;8.03;100.00
32131;BME280;18639;50.716;7.086;2022-09-29T07:25:56;98955.91;;;8.18;100.00
32131;BME280;18639;50.716;7.086;2022-09-29T07:28:22;98968.69;;;8.41;100.00
32131;BME280;18639;50.716;7.086;2022-09-29T07:31:00;98959.56;;;8.37;100.00
32131;BME280;18639;50.716;7.086;2022-09-29T07:33:25;98974.38;;;8.56;100.00
32131;BME280;18639;50.716;7.086;2022-09-29T07:35:52;98966.66;;;8.56;100.00
32131;BME280;18639;50.716;7.086;2022-09-29T07:38:18;98976.09;;;8.78;100.00
32131;BME280;18639;50.716;7.086;2022-09-29T07:40:43;98974.69;;;9.17;100.00
32131;BME280;18639;50.716;7.086;2022-09-29T07:43:29;98978.91;;;9.59;100.00
32131;BME280;18639;50.716;7.086;2022-09-29T07:45:54;98961.38;;;9.84;100.00
32131;BME280;18639;50.716;7.086;2022-09-29T07:48:20;98980.78;;;10.29;100.00
32131;BME280;18639;50.716;7.086;2022-09-29T07:50:45;98962.75;;;10.58;100.00
32131;BME280;18639;50.716;7.086;2022-09-29T07:53:12;98984.84;;;10.91;100.00
32131;BME280;18639;50.716;7.086;2022-09-29T07:55:38;98987.28;;;10.92;99.79
32131;BME280;18639;50.716;7.086;2022-09-29T07:58:04;98979.94;;;10.97;97.18
32131;BME280;18639;50.716;7.086;2022-09-29T08:00:30;98988.53;;;11.27;96.90
32131;BME280;18639;50.716;7.086;2022-09-29T08:03:25;98986.44;;;11.69;96.93
32131;BME280;18639;50.716;7.086;2022-09-29T08:05:51;98982.16;;;12.06;95.56
32131;BME280;18639;50.716;7.086;2022-09-29T08:08:17;98965.47;;;12.46;94.00
32131;BME280;18639;50.716;7.086;2022-09-29T08:10:42;98995.69;;;13.00;92.21
32131;BME280;18639;50.716;7.086;2022-09-29T08:13:07;98983.63;;;13.44;89.10
32131;BME280;18639;50.716;7.086;2022-09-29T08:15:33;98989.13;;;13.93;87.67
32131;BME280;18639;50.716;7.086;2022-09-29T08:17:58;98993.97;;;14.21;85.06
32131;BME280;18639;50.716;7.086;2022-09-29T08:20:23;98998.22;;;14.56;83.99
32131;BME280;18639;50.716;7.086;2022-09-29T08:22:50;98969.34;;;14.67;81.97
32131;BME280;18639;50.716;7.086;2022-09-29T08:25:16;98998.69;;;15.34;80.15
32131;BME280;18639;50.716;7.086;2022-09-29T08:27:42;98990.09;;;15.74;80.34
32131;BME280;18639;50.716;7.086;2022-09-29T08:30:10;99004.13;;;16.20;76.71
32131;BME280;18639;50.716;7.086;2022-09-29T08:32:35;98977.63;;;16.48;76.78
32131;BME280;18639;50.716;7.086;2022-09-29T08:35:01;98996.63;;;17.03;74.25
32131;BME280;18639;50.716;7.086;2022-09-29T08:37:27;98983.41;;;17.42;70.29
32131;BME280;18639;50.716;7.086;2022-09-29T08:39:52;99000.84;;;18.17;67.25
32131;BME280;18639;50.716;7.086;2022-09-29T08:42:23;99005.44;;;18.73;65.38
32131;BME280;18639;50.716;7.086;2022-09-29T08:44:57;99011.66;;;19.29;60.64
32131;BME280;18639;50.716;7.086;2022-09-29T08:47:35;98998.50;;;19.44;59.74
32131;BME280;18639;50.716;7.086;2022-09-29T08:50:36;99004.56;;;19.45;59.95
32131;BME280;18639;50.716;7.086;2022-09-29T08:53:10;99001.22;;;19.36;57.92
32131;BME280;18639;50.716;7.086;2022-09-29T08:58:01;99012.91;;;19.33;56.77
32131;BME280;18639;50.716;7.086;2022-09-29T09:09:20;99010.03;;;18.71;57.00
32131;BME280;18639;50.716;7.086;2022-09-29T09:18:12;99016.50;;;18.75;59.60
32131;BME280;18639;50.716;7.086;2022-09-29T09:20:55;99011.06;;;18.91;59.82
32131;BME280;18639;50.716;7.086;2022-09-29T09:26:03;99005.22;;;18.89;58.23
32131;BME280;18639;50.716;7.086;2022-09-29T09:28:42;99028.91;;;19.24;58.75
32131;BME280;18639;50.716;7.086;2022-09-29T09:31:18;99014.72;;;19.12;59.03
32131;BME280;18639;50.716;7.086;2022-09-29T09:33:51;99034.03;;;19.11;58.60
32131;BME280;18639;50.716;7.086;2022-09-29T09:36:24;99015.81;;;19.03;60.03
32131;BME280;18639;50.716;7.086;2022-09-29T09:39:12;99022.81;;;18.81;60.52
32131;BME280;18639;50.716;7.086;2022-09-29T09:41:41;98964.78;;;18.56;60.53
32131;BME280;18639;50.716;7.086;2022-09-29T09:44:16;99021.41;;;18.49;60.44
32131;BME280;18639;50.716;7.086;2022-09-29T09:46:51;99011.47;;;18.44;60.97
32131;BME280;18639;50.716;7.086;2022-09-29T09:49:31;99019.97;;;19.12;60.36
32131;BME280;18639;50.716;7.086;2022-09-29T09:52:09;99013.59;;;19.21;59.39
32131;BME280;18639;50.716;7.086;2022-09-29T09:54:39;99022.94;;;19.72;56.85
32131;BME280;18639;50.716;7.086;2022-09-29T09:59:46;99020.03;;;19.89;58.31
32131;BME280;18639;50.716;7.086;2022-09-29T10:02:19;99006.31;;;19.87;57.04
32131;BME280;18639;50.716;7.086;2022-09-29T10:04:47;99024.63;;;19.80;55.70
32131;BME280;18639;50.716;7.086;2022-09-29T10:07:13;98997.66;;;19.93;56.21
32131;BME280;18639;50.716;7.086;2022-09-29T10:09:39;99018.75;;;20.06;55.08
32131;BME280;18639;50.716;7.086;2022-09-29T10:12:04;99000.59;;;20.11;53.82
32131;BME280;18639;50.716;7.086;2022-09-29T10:14:29;99020.56;;;19.77;56.36
32131;BME280;18639;50.716;7.086;2022-09-29T10:17:04;98976.50;;;19.66;57.28
32131;BME280;18639;50.716;7.086;2022-09-29T10:19:54;99016.03;;;19.44;56.02
32131;BME280;18639;50.716;7.086;2022-09-29T10:22:20;99018.44;;;19.66;56.26
32131;BME280;18639;50.716;7.086;2022-09-29T10:24:46;98991.06;;;19.69;56.22
32131;BME280;18639;50.716;7.086;2022-09-29T10:27:18;99004.50;;;19.38;55.85
32131;BME280;18639;50.716;7.086;2022-09-29T10:29:46;99025.72;;;19.64;56.42
32131;BME280;18639;50.716;7.086;2022-09-29T10:34:59;99015.03;;;18.37;55.81
32131;BME280;18639;50.716;7.086;2022-09-29T10:37:33;99019.31;;;18.00;57.94
32131;BME280;18639;50.716;7.086;2022-09-29T10:42:41;99034.66;;;16.98;59.18
32131;BME280;18639;50.716;7.086;2022-09-29T10:45:27;99026.13;;;16.73;60.21
32131;BME280;18639;50.716;7.086;2022-09-29T10:50:27;99043.19;;;16.45;64.70
32131;BME280;18639;50.716;7.086;2022-09-29T10:53:02;99043.75;;;16.24;64.68
32131;BME280;18639;50.716;7.086;2022-09-29T10:55:31;99033.03;;;15.94;64.05
32131;BME280;18639;50.716;7.086;2022-09-29T10:58:00;99023.63;;;15.53;66.72
32131;BME280;18639;50.716;7.086;2022-09-29T11:00:31;99039.09;;;15.63;68.07
32131;BME280;18639;50.716;7.086;2022-09-29T11:03:27;99043.97;;;15.57;70.71
32131;BME280;18639;50.716;7.086;2022-09-29T11:05:57;99035.47;;;15.47;70.24
32131;BME280;18639;50.716;7.086;2022-09-29T11:08:23;99037.75;;;15.34;69.51
32131;BME280;18639;50.716;7.086;2022-09-29T11:11:20;99030.28;;;15.47;68.94
32131;BME280;18639;50.716;7.086;2022-09-29T11:13:46;99048.22;;;15.58;71.98
32131;BME280;18639;50.716;7.086;2022-09-29T11:16:17;99049.50;;;15.71;71.35
32131;BME280;18639;50.716;7.086;2022-09-29T11:18:45;99030.28;;;15.47;68.94
32131;BME280;18639;50.716;7.086;2022-09-29T11:26:55;99056.34;;;15.64;66.37
32131;BME280;18639;50.716;7.086;2022-09-29T11:35:01;99034.19;;;15.84;66.26
32131;BME280;18639;50.716;7.086;2022-09-29T11:37:53;99053.72;;;15.72;64.64
32131;BME280;18639;50.716;7.086;2022-09-29T11:40:46;99055.00;;;15.92;64.29
32131;BME280;18639;50.716;7.086;2022-09-29T11:46:20;99056.16;;;15.97;62.88
32131;BME280;18639;50.716;7.086;2022-09-29T11:56:59;99060.69;;;16.12;60.28
32131;BME280;18639;50.716;7.086;2022-09-29T11:59:40;99055.81;;;16.17;60.14
32131;BME280;18639;50.716;7.086;2022-09-29T12:02:30;99059.06;;;16.11;58.98
32131;BME280;18639;50.716;7.086;2022-09-29T12:10:43;99057.00;;;15.74;58.86
32131;BME280;18639;50.716;7.086;2022-09-29T12:13:22;99056.66;;;15.61;60.84
32131;BME280;18639;50.716;7.086;2022-09-29T12:15:56;99066.56;;;15.41;57.93
32131;BME280;18639;50.716;7.086;2022-09-29T12:18:31;99052.38;;;15.19;54.62
32131;BME280;18639;50.716;7.086;2022-09-29T12:21:00;99036.91;;;15.09;57.13
32131;BME280;18639;50.716;7.086;2022-09-29T12:23:28;99061.44;;;15.07;54.93
32131;BME280;18639;50.716;7.086;2022-09-29T12:25:58;99066.84;;;15.22;57.34
32131;BME280;18639;50.716;7.086;2022-09-29T12:28:31;99049.28;;;15.24;57.78
32131;BME280;18639;50.716;7.086;2022-09-29T12:31:03;99039.34;;;15.11;58.24
32131;BME280;18639;50.716;7.086;2022-09-29T12:33:37;99054.19;;;15.27;58.92
32131;BME280;18639;50.716;7.086;2022-09-29T12:36:24;99044.59;;;15.27;58.73
32131;BME280;18639;50.716;7.086;2022-09-29T12:44:50;99052.09;;;15.38;57.93
32131;BME280;18639;50.716;7.086;2022-09-29T12:50:29;99054.81;;;15.21;58.08
32131;BME280;18639;50.716;7.086;2022-09-29T12:53:08;99052.06;;;15.22;58.75
32131;BME280;18639;50.716;7.086;2022-09-29T12:55:49;99026.31;;;15.03;57.12
32131;BME280;18639;50.716;7.086;2022-09-29T12:58:23;99051.72;;;15.25;58.90
32131;BME280;18639;50.716;7.086;2022-09-29T13:00:57;99048.44;;;15.07;57.37
32131;BME280;18639;50.716;7.086;2022-09-29T13:09:54;99052.69;;;15.16;58.45
32131;BME280;18639;50.716;7.086;2022-09-29T13:15:08;99052.38;;;15.19;59.23
32131;BME280;18639;50.716;7.086;2022-09-29T13:28:22;99050.56;;;15.20;61.91
32131;BME280;18639;50.716;7.086;2022-09-29T13:30:52;99062.13;;;15.25;59.44
32131;BME280;18639;50.716;7.086;2022-09-29T13:33:23;99057.91;;;15.24;62.83
32131;BME280;18639;50.716;7.086;2022-09-29T13:35:50;99060.50;;;15.24;62.70
32131;BME280;18639;50.716;7.086;2022-09-29T13:38:19;99045.19;;;15.13;60.02
32131;BME280;18639;50.716;7.086;2022-09-29T13:46:41;99071.41;;;15.11;60.24
32131;BME280;18639;50.716;7.086;2022-09-29T13:51:45;99073.47;;;15.08;59.37
32131;BME280;18639;50.716;7.086;2022-09-29T13:57:04;99068.13;;;15.09;62.84
32131;BME280;18639;50.716;7.086;2022-09-29T13:59:30;99069.25;;;15.07;60.71
32131;BME280;18639;50.716;7.086;2022-09-29T14:01:57;99074.44;;;15.07;62.16
32131;BME280;18639;50.716;7.086;2022-09-29T14:04:49;99073.81;;;15.05;61.24
32131;BME280;18639;50.716;7.086;2022-09-29T14:07:44;99068.78;;;15.11;62.22
32131;BME280;18639;50.716;7.086;2022-09-29T14:10:28;99070.72;;;15.17;62.95
32131;BME280;18639;50.716;7.086;2022-09-29T14:13:03;99081.13;;;15.17;64.51
32131;BME280;18639;50.716;7.086;2022-09-29T14:15:36;99074.47;;;15.15;64.30
32131;BME280;18639;50.716;7.086;2022-09-29T14:18:14;99067.50;;;15.15;61.91
32131;BME280;18639;50.716;7.086;2022-09-29T14:20:57;99087.34;;;15.25;63.26
32131;BME280;18639;50.716;7.086;2022-09-29T14:29:14;99094.03;;;15.35;63.57
32131;BME280;18639;50.716;7.086;2022-09-29T14:31:44;99091.59;;;15.34;64.87
32131;BME280;18639;50.716;7.086;2022-09-29T14:34:13;99082.63;;;15.28;65.64
32131;BME280;18639;50.716;7.086;2022-09-29T14:36:40;99095.19;;;15.33;63.22
32131;BME280;18639;50.716;7.086;2022-09-29T14:39:10;99107.97;;;15.18;63.60
32131;BME280;18639;50.716;7.086;2022-09-29T14:41:44;99107.16;;;15.17;64.02
32131;BME280;18639;50.716;7.086;2022-09-29T14:44:29;99103.94;;;15.15;67.26
32131;BME280;18639;50.716;7.086;2022-09-29T14:50:25;99121.41;;;14.97;64.94
32131;BME280;18639;50.716;7.086;2022-09-29T14:53:16;99117.47;;;14.85;63.12
32131;BME280;18639;50.716;7.086;2022-09-29T14:56:16;99114.84;;;14.77;63.94
32131;BME280;18639;50.716;7.086;2022-09-29T14:59:02;99117.56;;;14.67;63.57
32131;BME280;18639;50.716;7.086;2022-09-29T15:01:32;99107.91;;;14.60;64.26
32131;BME280;18639;50.716;7.086;2022-09-29T15:04:11;99121.44;;;14.63;65.50
32131;BME280;18639;50.716;7.086;2022-09-29T15:06:46;99137.19;;;14.62;67.27
32131;BME280;18639;50.716;7.086;2022-09-29T15:09:18;99132.28;;;14.59;67.49
32131;BME280;18639;50.716;7.086;2022-09-29T15:11:48;99121.53;;;14.54;64.81
32131;BME280;18639;50.716;7.086;2022-09-29T15:16:57;99135.66;;;14.51;68.49
32131;BME280;18639;50.716;7.086;2022-09-29T15:25:19;99140.44;;;14.38;66.93
32131;BME280;18639;50.716;7.086;2022-09-29T15:27:50;99127.03;;;14.25;69.77
32131;BME280;18639;50.716;7.086;2022-09-29T15:30:21;99114.88;;;14.08;71.90
32131;BME280;18639;50.716;7.086;2022-09-29T15:32:48;99132.25;;;14.07;74.50
32131;BME280;18639;50.716;7.086;2022-09-29T15:35:20;99142.41;;;14.01;75.70
32131;BME280;18639;50.716;7.086;2022-09-29T15:40:20;99149.47;;;13.90;81.08
32131;BME280;18639;50.716;7.086;2022-09-29T15:42:46;99158.84;;;13.83;83.37
32131;BME280;18639;50.716;7.086;2022-09-29T15:45:17;99150.47;;;13.72;85.13
32131;BME280;18639;50.716;7.086;2022-09-29T15:47:44;99155.06;;;13.60;86.99
32131;BME280;18639;50.716;7.086;2022-09-29T15:50:24;99165.44;;;13.60;88.45
32131;BME280;18639;50.716;7.086;2022-09-29T15:52:49;99165.50;;;13.51;89.81